Aérodrome :
LOGIN :

S'inscrire | Disclaimer

   EN    FR    IT 

 










Légende :    VFR   VFR Marginal   IFR   IFR Intensif   IFR Très Intensif
Visi : 
Plafond : 
>= 8 km
>= 3000ft
5 à 8 km
1000 à 3000 ft
1500m à 5 km
500 à 1000 ft
800 à 1500m
200 à 500 ft
< 800m
< 200 ft
Symboles :   Orages  Brouillard  Fortes neiges  Fortes précipitations  Vent > 20 kt
SIGMETs :   Divers  Orages  Givrage  Turbulence  Onde Orograph.  Cendres Volcan.






- Altitude de l'aérodrome : 119 ft
- Code IATA : WAT


EIWF - Waterford

DERNIER METAR :
  • 171930Z 25012KT 210V280 CAVOK 10/07 Q0994 R21/1/////

METARs EXPIRÉS :
  • 171900Z 25014KT 220V280 9999 FEW020 SCT055 11/06 Q0995 R21/1/////
  • 171830Z 26009KT 210V320 9999 VCSH FEW020CB SCT024 11/07 Q0995 R21/1/////
  • 171800Z 25012G22KT 210V300 9999 VCSH SCT020CB SCT024 11/08 Q0995 R21/1/////
  • 171730Z 25013KT 210V300 9999 -SHRA SCT020CB 11/07 Q0995 R21/1/////

TAF TAF EIWF
Valide du 17 à 18h jusqu'au 18 à 03h UTC


171700Z 1718/1803 23016KT 9999 FEW018
BECMG 1718/1720 22010KT
TEMPO 1718/1721 -SHRA SCT018CB
ATIS : +353 51 877 000



MET'MAP, la Météo Aéronautique d'un coup d'oeil ! - Copyright ORBIFLY Décembre 2007 - Disclaimer

ORBIFLY MET'MAP TEAM :

Programmation & Développement : Alexandra Zaïnal
Conception & Développement : Baudouin d'Aumeries
Co-Programmation & Développement : Marc-Olivier Méhu
Soutien technique & logistique : Manuel Goepfert

Contact : metmap@orbifly.com




SOURCES & CREDITS :

   NOAA